Aviation Digital Data Service (ADDS)

Output produced by METARs form (0608 UTC 26 May 2022)
found at http://www.aviationweather.gov/metar/data/
 
METAR text: KFAT 260553Z 32008KT 10SM BKN200 30/07 A2977 RMK AO2 SLP077 T03000072 10389 20300 53018
Conditions at: KFAT (FRESNO , CA, US) observed 0553 UTC 26 May 2022
Temperature: 30.0°C (86°F)
Dewpoint: 7.2°C (45°F) [RH = 24%]
Pressure (altimeter): 29.77 inches Hg (1008.2 mb)
[Sea-level pressure: 1007.7 mb]
Winds: from the NW (320 degrees) at 9 MPH (8 knots; 4.1 m/s)
Visibility: 10 or more miles (16+ km)
Ceiling: 20000 feet AGL
Clouds: broken clouds at 20000 feet AGL
Weather: no significant weather observed at this time

Forecast for: KFAT (FRESNO , CA, US)
Text: KFAT 260520Z 2606/2706 VRB05KT P6SM SKC
Forecast period: 0600 to 2200 UTC 26 May 2022
Forecast type: FROM: standard forecast or significant change
Winds: variable direction winds at 6 MPH (5 knots; 2.6 m/s)
Visibility: 6 or more miles (10+ km)
Clouds: clear skies
Weather: no significant weather forecast for this period
Text: FM262200 32009G15KT P6SM SKC
Forecast period: 2200 UTC 26 May 2022 to 0600 UTC 27 May 2022
Forecast type: FROM: standard forecast or significant change
Winds: from the NW (320 degrees) at 10 MPH (9 knots; 4.6 m/s)
gusting to 17 MPH (15 knots; 7.7 m/s)
Visibility: 6 or more miles (10+ km)
Clouds: clear skies
Weather: no significant weather forecast for this period